createdAt,value
2018-02-23T00:01:56.288Z,48.80
2018-02-23T00:04:23.877Z,48.60
2018-02-23T00:06:52.205Z,48.40
2018-02-23T00:09:19.800Z,48.40
2018-02-23T00:11:47.538Z,48.60
2018-02-23T00:14:15.130Z,48.70
2018-02-23T00:16:42.704Z,48.80
2018-02-23T00:19:10.310Z,49.10
2018-02-23T00:21:37.877Z,48.80
2018-02-23T00:24:05.457Z,48.80
2018-02-23T00:26:33.074Z,48.70
2018-02-23T00:29:00.662Z,48.90
2018-02-23T00:31:28.220Z,48.90
2018-02-23T00:33:55.804Z,48.70
2018-02-23T00:36:23.449Z,49.10
2018-02-23T00:38:51.037Z,49.00
2018-02-23T00:41:18.605Z,49.00
2018-02-23T00:43:46.204Z,48.60
2018-02-23T00:46:13.769Z,48.80
2018-02-23T00:48:41.356Z,48.80
2018-02-23T00:51:08.917Z,49.00
2018-02-23T00:53:36.509Z,49.10
2018-02-23T00:56:04.840Z,49.90
2018-02-23T00:58:32.429Z,49.60
2018-02-23T01:01:00.005Z,49.40
2018-02-23T01:03:27.597Z,49.40
2018-02-23T01:05:55.160Z,48.80
2018-02-23T01:08:22.760Z,48.70
2018-02-23T01:10:50.761Z,49.10
2018-02-23T01:13:18.326Z,49.30
2018-02-23T01:15:46.689Z,49.10
2018-02-23T01:18:15.020Z,48.90
2018-02-23T01:20:42.612Z,48.80
2018-02-23T01:23:10.223Z,49.20
2018-02-23T01:25:37.810Z,49.30
2018-02-23T01:28:05.374Z,49.30
2018-02-23T01:30:32.976Z,49.30
2018-02-23T01:33:01.304Z,48.70
2018-02-23T01:35:28.902Z,48.70
2018-02-23T01:37:56.473Z,49.00
2018-02-23T01:40:24.059Z,48.90
2018-02-23T01:42:51.625Z,48.90
2018-02-23T01:45:19.212Z,48.70
2018-02-23T01:47:47.217Z,49.00
2018-02-23T01:50:14.841Z,48.50
2018-02-23T01:52:42.400Z,48.80
2018-02-23T01:55:09.989Z,48.60
2018-02-23T01:57:38.334Z,48.50
2018-02-23T02:00:05.942Z,48.50
2018-02-23T02:02:33.511Z,48.80
2018-02-23T02:05:01.100Z,48.30
2018-02-23T02:07:28.670Z,48.40
2018-02-23T02:09:57.030Z,48.40
2018-02-23T02:12:24.590Z,48.40
2018-02-23T02:14:52.182Z,48.10
2018-02-23T02:17:19.761Z,48.10
2018-02-23T02:19:47.344Z,48.40
2018-02-23T02:22:14.906Z,48.40
2018-02-23T02:24:42.503Z,48.60
2018-02-23T02:27:10.099Z,48.60
2018-02-23T02:29:37.707Z,49.30
2018-02-23T02:32:05.274Z,48.80
2018-02-23T02:34:32.879Z,49.10
2018-02-23T02:37:00.452Z,49.00
2018-02-23T02:39:28.079Z,49.30
2018-02-23T02:41:55.649Z,49.30
2018-02-23T02:44:24.002Z,49.30
2018-02-23T02:46:51.574Z,49.30
2018-02-23T02:49:19.197Z,50.20
2018-02-23T02:51:46.767Z,49.20
2018-02-23T02:54:14.343Z,49.40
2018-02-23T02:56:41.934Z,49.80
2018-02-23T02:59:10.268Z,49.40
2018-02-23T03:01:37.852Z,50.00
2018-02-23T03:04:06.216Z,49.60
2018-02-23T03:06:33.817Z,49.80
2018-02-23T03:09:01.401Z,49.80
2018-02-23T03:11:29.016Z,49.70
2018-02-23T03:13:56.590Z,49.60
2018-02-23T03:16:24.177Z,49.20
2018-02-23T03:18:51.758Z,49.40
2018-02-23T03:21:19.345Z,50.00
2018-02-23T03:23:47.673Z,49.60
2018-02-23T03:26:15.258Z,49.60
2018-02-23T03:28:42.832Z,49.50
2018-02-23T03:31:10.447Z,49.90
2018-02-23T03:33:38.021Z,49.60
2018-02-23T03:36:05.610Z,49.30
2018-02-23T03:38:33.181Z,49.50
2018-02-23T03:41:00.784Z,49.30
2018-02-23T03:43:28.365Z,49.40
2018-02-23T03:45:56.725Z,49.70
2018-02-23T03:48:24.298Z,50.30
2018-02-23T03:50:51.906Z,49.60
2018-02-23T03:53:19.476Z,49.60
2018-02-23T03:55:47.257Z,49.50
2018-02-23T03:58:14.838Z,49.40
2018-02-23T04:00:42.435Z,49.70
2018-02-23T04:03:10.008Z,49.80
2018-02-23T04:05:38.370Z,49.80
2018-02-23T04:08:06.714Z,50.10
2018-02-23T04:10:34.321Z,50.00
2018-02-23T04:13:02.665Z,49.50
2018-02-23T04:15:30.265Z,49.40
2018-02-23T04:17:57.869Z,49.80
2018-02-23T04:20:25.465Z,49.40
2018-02-23T04:22:53.039Z,49.40
2018-02-23T04:25:21.398Z,49.00
2018-02-23T04:27:49.745Z,49.50
2018-02-23T04:30:17.360Z,49.50
2018-02-23T04:32:44.925Z,49.50
2018-02-23T04:35:12.499Z,49.50
2018-02-23T04:37:40.092Z,49.50
2018-02-23T04:40:07.697Z,49.40
2018-02-23T04:42:35.298Z,49.30
2018-02-23T04:45:02.966Z,49.10
2018-02-23T04:47:30.552Z,49.60
2018-02-23T04:49:58.122Z,49.70
2018-02-23T04:52:26.666Z,49.50
2018-02-23T04:54:54.242Z,49.50
2018-02-23T04:57:22.626Z,49.60
2018-02-23T04:59:50.970Z,49.10
2018-02-23T05:02:18.561Z,49.10
2018-02-23T05:04:46.140Z,49.40
2018-02-23T05:07:13.770Z,49.30
2018-02-23T05:09:41.349Z,49.30
2018-02-23T05:12:08.943Z,49.10
2018-02-23T05:14:36.528Z,48.90
2018-02-23T05:17:04.121Z,49.40
2018-02-23T05:19:31.697Z,49.70
2018-02-23T05:21:59.317Z,49.50
2018-02-23T05:24:26.881Z,49.50
2018-02-23T05:26:54.477Z,49.70
2018-02-23T05:29:22.272Z,49.50
2018-02-23T05:31:49.931Z,49.30
2018-02-23T05:34:17.800Z,49.20
2018-02-23T05:36:45.413Z,49.40
2018-02-23T05:39:12.985Z,49.00
2018-02-23T05:41:40.574Z,49.10
2018-02-23T05:44:08.144Z,49.50
2018-02-23T05:46:35.742Z,49.80
2018-02-23T05:49:04.088Z,50.00
2018-02-23T05:51:31.686Z,50.40
2018-02-23T05:53:59.252Z,49.60
2018-02-23T05:56:26.898Z,49.60
2018-02-23T05:58:54.501Z,49.60
2018-02-23T06:01:22.918Z,50.00
2018-02-23T06:03:50.525Z,49.80
2018-02-23T06:06:18.155Z,50.00
2018-02-23T06:08:46.514Z,49.70
2018-02-23T06:11:14.088Z,50.10
2018-02-23T06:13:41.703Z,50.50
2018-02-23T06:16:14.951Z,49.80
2018-02-23T06:18:48.860Z,50.30
2018-02-23T06:21:16.429Z,50.30
2018-02-23T06:23:44.025Z,50.90
2018-02-23T06:26:11.605Z,50.40
2018-02-23T06:28:39.205Z,50.40
2018-02-23T06:31:07.572Z,50.00
2018-02-23T06:33:35.169Z,50.00
2018-02-23T06:36:02.745Z,50.30
2018-02-23T06:38:30.353Z,50.30
2018-02-23T06:40:57.924Z,50.60
2018-02-23T06:43:27.014Z,50.60
2018-02-23T06:45:54.596Z,50.50
2018-02-23T06:48:22.185Z,50.60
2018-02-23T06:50:49.800Z,50.40
2018-02-23T06:53:17.426Z,50.20
2018-02-23T06:55:45.003Z,50.20
2018-02-23T06:58:12.609Z,50.40
2018-02-23T07:00:40.188Z,50.10
2018-02-23T07:03:08.570Z,50.40
2018-02-23T07:05:36.158Z,50.40
2018-02-23T07:08:04.521Z,50.10
2018-02-23T07:10:32.096Z,50.10
2018-02-23T07:13:00.460Z,50.20
2018-02-23T07:15:28.033Z,50.10
2018-02-23T07:17:56.384Z,50.80
2018-02-23T07:20:23.958Z,50.80
2018-02-23T07:22:52.316Z,51.40
2018-02-23T07:25:19.894Z,50.60
2018-02-23T07:27:47.486Z,50.60
2018-02-23T07:30:15.064Z,50.70
2018-02-23T07:32:42.661Z,50.40
2018-02-23T07:35:10.236Z,50.10
2018-02-23T07:37:38.601Z,50.10
2018-02-23T07:40:06.178Z,50.10
2018-02-23T07:42:34.553Z,50.40
2018-02-23T07:45:02.136Z,50.40
2018-02-23T07:47:29.753Z,50.50
2018-02-23T07:49:57.333Z,50.30
2018-02-23T07:52:24.908Z,50.10
2018-02-23T07:54:52.514Z,50.50
2018-02-23T07:57:20.098Z,50.50
2018-02-23T07:59:47.701Z,50.30
2018-02-23T08:02:15.273Z,50.60
2018-02-23T08:04:42.870Z,50.50
2018-02-23T08:07:10.478Z,50.30
2018-02-23T08:09:38.069Z,50.00
2018-02-23T08:12:05.642Z,49.90
2018-02-23T08:14:33.232Z,50.40
2018-02-23T08:17:01.575Z,50.10
2018-02-23T08:19:29.183Z,50.10
2018-02-23T08:21:56.769Z,50.00
2018-02-23T08:24:24.373Z,50.00
2018-02-23T08:26:51.946Z,50.00
2018-02-23T08:29:19.544Z,49.70
2018-02-23T08:31:47.104Z,49.40
2018-02-23T08:34:14.720Z,49.20
2018-02-23T08:36:43.058Z,49.30
2018-02-23T08:39:10.653Z,49.20
2018-02-23T08:41:38.221Z,49.80
2018-02-23T08:44:05.814Z,49.20
2018-02-23T08:46:33.376Z,49.30
2018-02-23T08:49:00.966Z,49.60
2018-02-23T08:51:28.529Z,49.20
2018-02-23T08:53:56.124Z,49.30
2018-02-23T08:56:23.684Z,49.10
2018-02-23T08:58:51.272Z,49.10
2018-02-23T09:01:18.839Z,49.00
2018-02-23T09:03:46.433Z,49.80
2018-02-23T09:06:14.010Z,49.10
2018-02-23T09:08:41.606Z,49.30
2018-02-23T09:11:09.201Z,49.20
2018-02-23T09:13:36.798Z,48.80
2018-02-23T09:16:04.365Z,48.70
2018-02-23T09:18:31.962Z,47.60
2018-02-23T09:20:59.555Z,48.30
2018-02-23T09:23:27.148Z,47.70
2018-02-23T09:25:54.709Z,47.50
2018-02-23T09:28:22.297Z,47.50
2018-02-23T09:30:49.890Z,48.10
2018-02-23T09:33:18.228Z,46.70
2018-02-23T09:35:45.827Z,46.60
2018-02-23T09:38:13.401Z,47.20
2018-02-23T09:40:40.990Z,47.70
2018-02-23T09:43:08.558Z,46.60
2018-02-23T09:45:36.145Z,46.20
2018-02-23T09:48:03.727Z,45.50
2018-02-23T09:50:32.086Z,45.00
2018-02-23T09:52:59.648Z,44.90
2018-02-23T09:55:27.243Z,45.80
2018-02-23T09:57:54.813Z,45.00
2018-02-23T10:00:22.469Z,45.60
2018-02-23T10:02:50.032Z,45.20
2018-02-23T10:05:17.619Z,44.80
2018-02-23T10:07:45.187Z,45.30
2018-02-23T10:10:12.772Z,45.80
2018-02-23T10:12:40.341Z,45.80
2018-02-23T10:15:08.696Z,45.00
2018-02-23T10:17:36.257Z,44.80
2018-02-23T10:20:03.857Z,44.00
2018-02-23T10:22:31.432Z,43.70
2018-02-23T10:24:59.027Z,41.60
2018-02-23T10:27:26.597Z,42.80
2018-02-23T10:29:54.186Z,43.30
2018-02-23T10:32:21.752Z,42.50
2018-02-23T10:34:49.344Z,41.40
2018-02-23T10:37:16.912Z,43.30
2018-02-23T10:39:44.501Z,42.90
2018-02-23T10:42:12.841Z,42.40
2018-02-23T10:44:40.442Z,42.40
2018-02-23T10:47:08.014Z,41.60
2018-02-23T10:49:36.378Z,42.30
2018-02-23T10:52:03.958Z,42.20
2018-02-23T10:54:31.552Z,42.20
2018-02-23T10:56:59.122Z,42.20
2018-02-23T10:59:26.718Z,41.70
2018-02-23T11:01:54.285Z,41.80
2018-02-23T11:04:22.658Z,42.40
2018-02-23T11:06:51.002Z,43.10
2018-02-23T11:09:18.582Z,43.00
2018-02-23T11:11:46.959Z,42.60
2018-02-23T11:14:15.295Z,42.10
2018-02-23T11:16:42.894Z,42.10
2018-02-23T11:19:11.236Z,42.90
2018-02-23T11:21:38.840Z,42.90
2018-02-23T11:24:06.404Z,43.20
2018-02-23T11:26:34.766Z,43.80
2018-02-23T11:29:02.364Z,43.70
2018-02-23T11:31:29.954Z,44.30
2018-02-23T11:33:57.517Z,43.90
2018-02-23T11:36:25.154Z,43.00
2018-02-23T11:38:52.721Z,44.00
2018-02-23T11:41:20.305Z,44.00
2018-02-23T11:43:47.873Z,43.30
2018-02-23T11:46:15.469Z,44.10
2018-02-23T11:48:43.055Z,44.20
2018-02-23T11:51:10.648Z,44.00
2018-02-23T11:53:38.218Z,44.40
2018-02-23T11:56:05.823Z,44.40
2018-02-23T11:58:33.385Z,44.60
2018-02-23T12:01:00.977Z,44.30
2018-02-23T12:03:28.552Z,44.80
2018-02-23T12:05:56.158Z,44.10
2018-02-23T12:08:23.786Z,44.50
2018-02-23T12:10:51.378Z,44.50
2018-02-23T12:13:18.938Z,44.80
2018-02-23T12:15:46.557Z,44.70
2018-02-23T12:18:14.130Z,44.40
2018-02-23T12:20:42.486Z,44.40
2018-02-23T12:23:10.063Z,44.30
2018-02-23T12:25:38.430Z,44.60
2018-02-23T12:28:06.757Z,44.90
2018-02-23T12:30:34.345Z,44.90
2018-02-23T12:33:01.913Z,44.40
2018-02-23T12:35:29.521Z,44.20
2018-02-23T12:37:57.102Z,44.90
2018-02-23T12:40:24.690Z,44.20
2018-02-23T12:42:52.261Z,44.50
2018-02-23T12:45:19.880Z,44.50
2018-02-23T12:47:47.457Z,44.80
2018-02-23T12:50:15.034Z,44.70
2018-02-23T12:52:42.638Z,45.40
2018-02-23T12:55:10.197Z,45.00
2018-02-23T12:57:37.785Z,44.90
2018-02-23T13:00:05.370Z,45.10
2018-02-23T13:02:32.998Z,44.90
2018-02-23T13:05:00.570Z,45.40
2018-02-23T13:07:28.156Z,45.40
2018-02-23T13:09:56.490Z,45.80
2018-02-23T13:12:24.090Z,45.80
2018-02-23T13:14:57.249Z,45.80
2018-02-23T13:17:24.846Z,45.40
2018-02-23T13:19:53.141Z,45.50
2018-02-23T13:22:20.724Z,45.60
2018-02-23T13:24:48.290Z,46.20
2018-02-23T13:27:20.714Z,45.60
2018-02-23T13:29:49.054Z,45.00
2018-02-23T13:32:16.647Z,45.10
2018-02-23T13:34:44.214Z,45.30
2018-02-23T13:37:12.573Z,45.60
2018-02-23T13:39:40.142Z,45.60
2018-02-23T13:42:08.515Z,45.70
2018-02-23T13:44:36.854Z,45.50
2018-02-23T13:47:04.443Z,45.40
2018-02-23T13:49:32.029Z,45.10
2018-02-23T13:51:59.834Z,45.30
2018-02-23T13:54:27.405Z,45.60
2018-02-23T13:56:54.996Z,45.70
2018-02-23T13:59:22.564Z,45.80
2018-02-23T14:01:50.930Z,46.50
2018-02-23T14:04:19.283Z,46.30
2018-02-23T14:06:47.657Z,45.70
2018-02-23T14:09:15.249Z,46.10
2018-02-23T14:11:43.609Z,46.00
2018-02-23T14:14:11.190Z,46.00
2018-02-23T14:16:38.786Z,46.20
2018-02-23T14:19:06.348Z,46.40
2018-02-23T14:21:33.937Z,46.00
2018-02-23T14:24:01.524Z,46.00
2018-02-23T14:26:29.878Z,46.30
2018-02-23T14:28:57.452Z,46.30
2018-02-23T14:31:25.045Z,46.30
2018-02-23T14:33:52.611Z,46.10
2018-02-23T14:36:20.177Z,46.20
2018-02-23T14:38:47.765Z,46.10
2018-02-23T14:41:15.338Z,46.00
2018-02-23T14:43:42.944Z,46.20
2018-02-23T14:46:10.522Z,46.20
2018-02-23T14:48:49.863Z,46.30
2018-02-23T14:51:17.425Z,46.20
2018-02-23T14:53:45.018Z,46.60
2018-02-23T14:56:13.358Z,46.20
2018-02-23T14:58:40.950Z,46.10
2018-02-23T15:01:08.529Z,45.90
2018-02-23T15:03:36.120Z,45.50
2018-02-23T15:06:03.697Z,45.40
2018-02-23T15:08:31.294Z,45.90
2018-02-23T15:10:59.625Z,46.00
2018-02-23T15:13:27.212Z,46.00
2018-02-23T15:15:54.785Z,47.00
2018-02-23T15:18:22.377Z,46.50
2018-02-23T15:20:49.944Z,46.60
2018-02-23T15:23:17.533Z,46.30
2018-02-23T15:25:45.103Z,46.30
2018-02-23T15:28:12.726Z,46.40
2018-02-23T15:30:52.052Z,46.70
2018-02-23T15:33:19.646Z,47.20
2018-02-23T15:35:47.214Z,46.50
2018-02-23T15:38:14.810Z,46.70
2018-02-23T15:40:42.380Z,46.50
2018-02-23T15:43:09.964Z,46.40
2018-02-23T15:45:37.524Z,46.10
2018-02-23T15:48:11.731Z,46.40
2018-02-23T15:50:59.161Z,47.00
2018-02-23T15:53:26.753Z,46.90
2018-02-23T15:55:54.331Z,46.80
2018-02-23T15:58:23.854Z,46.70
2018-02-23T16:00:51.545Z,46.80
2018-02-23T16:03:19.157Z,47.20
2018-02-23T16:05:46.725Z,47.90
2018-02-23T16:08:15.076Z,46.40
2018-02-23T16:10:42.644Z,46.30
2018-02-23T16:13:10.246Z,47.00
2018-02-23T16:15:37.808Z,46.70
2018-02-23T16:18:05.389Z,47.20
2018-02-23T16:20:32.959Z,47.00
2018-02-23T16:23:00.559Z,46.90
2018-02-23T16:25:28.128Z,47.00
2018-02-23T16:27:55.724Z,46.70
2018-02-23T16:30:23.292Z,47.00
2018-02-23T16:32:52.569Z,47.00
2018-02-23T16:35:20.142Z,46.70
2018-02-23T16:37:47.740Z,47.10
2018-02-23T16:40:15.425Z,47.10
2018-02-23T16:42:43.029Z,47.20
2018-02-23T16:45:10.601Z,47.50
2018-02-23T16:47:38.174Z,47.40
2018-02-23T16:50:05.770Z,47.80
2018-02-23T16:52:33.376Z,46.90
2018-02-23T16:55:00.969Z,47.30
2018-02-23T16:57:28.545Z,47.10
2018-02-23T16:59:56.130Z,47.00
2018-02-23T17:02:23.698Z,47.10
2018-02-23T17:04:51.280Z,47.90
2018-02-23T17:07:18.860Z,47.10
2018-02-23T17:09:46.453Z,46.60
2018-02-23T17:12:14.023Z,46.70
2018-02-23T17:14:41.614Z,47.50
2018-02-23T17:17:09.186Z,46.30
2018-02-23T17:19:37.541Z,47.20
2018-02-23T17:22:05.114Z,47.20
2018-02-23T17:24:32.714Z,46.70
2018-02-23T17:27:00.286Z,46.70
2018-02-23T17:29:27.873Z,46.50
2018-02-23T17:31:55.436Z,46.60
2018-02-23T17:34:23.034Z,47.20
2018-02-23T17:36:51.373Z,47.30
2018-02-23T17:39:18.972Z,47.30
2018-02-23T17:41:47.310Z,46.90
2018-02-23T17:44:14.929Z,46.90
2018-02-23T17:46:42.495Z,46.90
2018-02-23T17:49:10.129Z,46.70
2018-02-23T17:51:38.464Z,46.60
2018-02-23T17:54:06.062Z,46.50
2018-02-23T17:56:33.636Z,46.80
2018-02-23T17:59:01.230Z,47.40
2018-02-23T18:01:29.564Z,47.20
2018-02-23T18:03:57.162Z,46.50
2018-02-23T18:06:24.730Z,47.30
2018-02-23T18:08:52.325Z,47.40
2018-02-23T18:11:19.890Z,47.00
2018-02-23T18:13:48.254Z,47.30
2018-02-23T18:16:15.831Z,47.80
2018-02-23T18:18:44.194Z,47.50
2018-02-23T18:21:11.785Z,47.40
2018-02-23T18:23:39.376Z,47.70
2018-02-23T18:26:06.978Z,47.50
2018-02-23T18:28:34.548Z,47.20
2018-02-23T18:31:03.024Z,47.30
2018-02-23T18:33:31.357Z,47.70
2018-02-23T18:35:58.954Z,47.70
2018-02-23T18:38:26.522Z,47.60
2018-02-23T18:40:55.393Z,47.70
2018-02-23T18:43:22.970Z,47.70
2018-02-23T18:45:51.365Z,47.60
2018-02-23T18:48:18.936Z,47.50
2018-02-23T18:50:46.546Z,47.20
2018-02-23T18:53:14.122Z,47.40
2018-02-23T18:55:41.725Z,47.30
2018-02-23T18:58:09.298Z,47.70
2018-02-23T19:00:36.898Z,47.70
2018-02-23T19:03:04.474Z,46.90
2018-02-23T19:05:32.068Z,46.50
2018-02-23T19:07:59.633Z,46.60
2018-02-23T19:10:27.226Z,47.70
2018-02-23T19:12:54.801Z,47.70
2018-02-23T19:15:23.157Z,47.50
2018-02-23T19:17:50.731Z,47.50
2018-02-23T19:20:19.093Z,47.30
2018-02-23T19:22:46.663Z,47.30
2018-02-23T19:25:14.249Z,47.20
2018-02-23T19:27:41.815Z,47.10
2018-02-23T19:30:09.410Z,47.60
2018-02-23T19:32:36.977Z,47.60
2018-02-23T19:35:04.570Z,47.50
2018-02-23T19:37:32.136Z,48.00
2018-02-23T19:39:59.930Z,48.10
2018-02-23T19:42:27.511Z,48.00
2018-02-23T19:44:55.123Z,47.90
2018-02-23T19:47:22.689Z,47.70
2018-02-23T19:49:50.281Z,47.70
2018-02-23T19:52:17.844Z,47.50
2018-02-23T19:54:45.429Z,48.00
2018-02-23T19:57:13.016Z,47.90
2018-02-23T19:59:40.596Z,47.50
2018-02-23T20:02:08.358Z,47.60
2018-02-23T20:04:35.928Z,47.80
2018-02-23T20:07:03.526Z,47.80
2018-02-23T20:09:31.856Z,47.80
2018-02-23T20:11:59.480Z,47.70
2018-02-23T20:14:27.045Z,47.60
2018-02-23T20:16:54.629Z,47.80
2018-02-23T20:19:22.188Z,48.10
2018-02-23T20:21:49.773Z,48.50
2018-02-23T20:24:17.348Z,47.90
2018-02-23T20:26:44.949Z,48.10
2018-02-23T20:29:12.525Z,48.00
2018-02-23T20:31:40.123Z,48.10
2018-02-23T20:34:07.740Z,48.20
2018-02-23T20:36:35.312Z,47.90
2018-02-23T20:39:02.874Z,48.20
2018-02-23T20:41:30.477Z,48.40
2018-02-23T20:43:58.050Z,48.20
2018-02-23T20:46:25.648Z,47.90
2018-02-23T20:48:53.213Z,48.10
2018-02-23T20:51:20.798Z,48.40
2018-02-23T20:53:48.369Z,48.60
2018-02-23T20:56:15.960Z,48.70
2018-02-23T20:58:43.524Z,48.60
2018-02-23T21:01:11.121Z,48.40
2018-02-23T21:03:38.693Z,48.60
2018-02-23T21:06:06.288Z,48.80
2018-02-23T21:08:33.861Z,48.90
2018-02-23T21:11:01.459Z,48.90
2018-02-23T21:13:29.030Z,48.90
2018-02-23T21:15:56.619Z,48.90
2018-02-23T21:18:24.949Z,49.20
2018-02-23T21:20:52.542Z,49.20
2018-02-23T21:23:20.874Z,48.90
2018-02-23T21:25:48.460Z,48.90
2018-02-23T21:28:16.030Z,49.20
2018-02-23T21:30:43.648Z,49.50
2018-02-23T21:33:11.218Z,49.60
2018-02-23T21:35:38.814Z,49.80
2018-02-23T21:38:07.145Z,49.80
2018-02-23T21:40:34.713Z,49.80
2018-02-23T21:43:03.082Z,49.90
2018-02-23T21:45:30.655Z,49.90
2018-02-23T21:47:58.254Z,50.00
2018-02-23T21:50:25.830Z,50.00
2018-02-23T21:52:53.618Z,50.60
2018-02-23T21:55:21.193Z,50.30
2018-02-23T21:57:48.789Z,50.40
2018-02-23T22:00:16.358Z,50.30
2018-02-23T22:02:44.791Z,50.30
2018-02-23T22:05:12.366Z,50.30
2018-02-23T22:07:39.949Z,50.30
2018-02-23T22:10:08.287Z,50.30
2018-02-23T22:12:36.750Z,50.20
2018-02-23T22:15:04.313Z,50.10
2018-02-23T22:17:31.908Z,50.30
2018-02-23T22:19:59.476Z,50.40
2018-02-23T22:22:27.845Z,50.20
2018-02-23T22:24:55.416Z,50.80
2018-02-23T22:27:23.005Z,50.10
2018-02-23T22:29:50.570Z,50.40
2018-02-23T22:32:18.785Z,50.30
2018-02-23T22:34:46.353Z,50.40
2018-02-23T22:37:13.936Z,50.50
2018-02-23T22:39:41.501Z,50.40
2018-02-23T22:42:09.084Z,50.50
2018-02-23T22:44:36.644Z,50.40
2018-02-23T22:47:04.240Z,50.50
2018-02-23T22:49:31.805Z,50.40
2018-02-23T22:51:59.395Z,50.20
2018-02-23T22:54:27.725Z,50.20
2018-02-23T22:56:55.318Z,50.10
2018-02-23T22:59:23.649Z,50.10
2018-02-23T23:01:51.779Z,50.10
2018-02-23T23:04:19.349Z,50.20
2018-02-23T23:06:46.946Z,50.30
2018-02-23T23:09:14.546Z,50.20
2018-02-23T23:11:42.908Z,50.30
2018-02-23T23:14:10.482Z,50.20
2018-02-23T23:16:38.840Z,50.30
2018-02-23T23:19:06.409Z,50.30
2018-02-23T23:21:34.767Z,50.00
2018-02-23T23:24:02.360Z,50.00
2018-02-23T23:26:29.924Z,50.10
2018-02-23T23:28:58.283Z,50.30
2018-02-23T23:31:26.624Z,50.10
2018-02-23T23:33:54.231Z,50.00
2018-02-23T23:36:21.798Z,49.80
2018-02-23T23:38:50.145Z,49.70
2018-02-23T23:41:17.715Z,49.60
2018-02-23T23:43:46.085Z,50.00
2018-02-23T23:46:15.292Z,50.00
2018-02-23T23:48:42.882Z,50.20
2018-02-23T23:51:10.449Z,49.90
2018-02-23T23:53:38.033Z,50.00
2018-02-23T23:56:05.598Z,50.00
2018-02-23T23:58:33.201Z,50.10
